Time;durP1;ratioP1;P1;durP2;ratioP2;P2;SDS_P1;SDS_P2;PMS_P1;PMS_P2;Temp;Humidity;BMP_temperature;BMP_pressure;BME280_temperature;BME280_humidity;BME280_pressure;Samples;Min_cycle;Max_cycle;Signal;HPM_P1;HPM_P2
2022/07/19 00:00:34;;;;;;;0.82;0.70;;;21.00;58.60;;;;;;5072608;28;20416;-74
2022/07/19 00:03:00;;;;;;;0.70;0.70;;;21.00;58.70;;;;;;5093251;28;20080;-74
2022/07/19 00:05:26;;;;;;;0.75;0.60;;;21.00;58.80;;;;;;5093156;28;20039;-74
2022/07/19 00:07:51;;;;;;;0.50;0.50;;;20.90;58.90;;;;;;5092654;28;20040;-74
2022/07/19 00:10:19;;;;;;;0.73;0.73;;;21.00;59.00;;;;;;5075226;28;20109;-74
2022/07/19 00:12:46;;;;;;;0.80;0.80;;;20.90;59.00;;;;;;5071435;28;20486;-74
2022/07/19 00:15:14;;;;;;;0.65;0.57;;;20.90;59.10;;;;;;5090519;28;20545;-74
2022/07/19 00:17:42;;;;;;;0.60;0.60;;;20.90;59.20;;;;;;5074358;28;20521;-74
2022/07/19 00:20:10;;;;;;;0.95;0.70;;;20.80;59.30;;;;;;5073117;28;20470;-74
2022/07/19 00:22:36;;;;;;;0.40;0.40;;;20.80;59.30;;;;;;5092346;28;20040;-74
2022/07/19 00:25:02;;;;;;;0.50;0.50;;;20.80;59.40;;;;;;5092954;28;20036;-74
2022/07/19 00:27:28;;;;;;;1.17;0.88;;;20.70;59.40;;;;;;5092894;28;20028;-74
2022/07/19 00:29:54;;;;;;;0.70;0.63;;;20.70;59.50;;;;;;5092848;28;20486;-74
2022/07/19 00:32:19;;;;;;;0.68;0.60;;;20.70;59.50;;;;;;5092395;28;20052;-74
2022/07/19 00:34:45;;;;;;;0.88;0.73;;;20.70;59.70;;;;;;5072100;28;20048;-74
2022/07/19 00:37:11;;;;;;;0.40;0.40;;;20.70;59.70;;;;;;5074311;28;20063;-73
2022/07/19 00:39:37;;;;;;;0.60;0.60;;;20.60;59.70;;;;;;5092290;28;20036;-74
2022/07/19 00:42:02;;;;;;;0.73;0.70;;;20.60;59.90;;;;;;5092245;28;20063;-75
2022/07/19 00:44:30;;;;;;;0.82;0.77;;;20.60;59.90;;;;;;5074437;28;20036;-74
2022/07/19 00:46:56;;;;;;;0.70;0.50;;;20.60;60.00;;;;;;5089860;28;20040;-74
2022/07/19 00:49:22;;;;;;;0.60;0.60;;;20.50;60.00;;;;;;5055121;28;20043;-74
2022/07/19 00:51:52;;;;;;;0.70;0.68;;;20.50;60.10;;;;;;5074369;28;20126;-73
2022/07/19 00:54:19;;;;;;;0.45;0.45;;;20.50;60.20;;;;;;5092199;28;20447;-74
2022/07/19 00:56:48;;;;;;;1.17;0.50;;;20.40;60.20;;;;;;5057409;28;20505;-74
2022/07/19 00:59:14;;;;;;;0.50;0.50;;;20.50;60.30;;;;;;5095815;28;20048;-74
2022/07/19 01:01:40;;;;;;;0.63;0.50;;;20.40;60.30;;;;;;5095986;28;20052;-74
2022/07/19 01:04:06;;;;;;;0.60;0.60;;;20.40;60.30;;;;;;5095736;28;20044;-74
2022/07/19 01:06:32;;;;;;;0.90;0.70;;;20.40;60.40;;;;;;5094295;28;20032;-74
2022/07/19 01:08:58;;;;;;;0.50;0.50;;;20.30;60.40;;;;;;5094556;28;20032;-74
2022/07/19 01:11:24;;;;;;;0.70;0.63;;;20.40;60.50;;;;;;5075209;28;20046;-74
2022/07/19 01:13:50;;;;;;;0.50;0.50;;;20.30;60.60;;;;;;5058485;28;20044;-74
2022/07/19 01:16:16;;;;;;;0.63;0.63;;;20.30;60.60;;;;;;5095225;28;20401;-74
2022/07/19 01:18:42;;;;;;;0.73;0.70;;;20.20;60.60;;;;;;5093137;28;20092;-74
2022/07/19 01:21:13;;;;;;;0.50;0.50;;;20.20;60.70;;;;;;5095817;28;20118;-74
2022/07/19 01:23:39;;;;;;;0.60;0.60;;;20.20;60.80;;;;;;5094035;28;20069;-74
2022/07/19 01:26:05;;;;;;;0.50;0.50;;;20.20;60.80;;;;;;5074894;28;20394;-74
2022/07/19 01:28:30;;;;;;;1.08;0.55;;;20.20;60.80;;;;;;5077122;28;20055;-74
2022/07/19 01:30:56;;;;;;;0.77;0.60;;;20.20;60.80;;;;;;5094912;28;20040;-74
2022/07/19 01:33:22;;;;;;;0.57;0.50;;;20.20;60.90;;;;;;5095102;28;20547;-75
2022/07/19 01:35:48;;;;;;;0.73;0.60;;;20.10;60.90;;;;;;5095441;28;20028;-74
2022/07/19 01:38:13;;;;;;;0.50;0.50;;;20.20;61.00;;;;;;5092858;28;20541;-74
2022/07/19 01:40:39;;;;;;;0.65;0.60;;;20.10;61.00;;;;;;5060254;28;20043;-74
2022/07/19 01:43:07;;;;;;;0.60;0.60;;;20.10;61.10;;;;;;5094925;28;20040;-74
2022/07/19 01:45:33;;;;;;;0.50;0.50;;;20.20;61.20;;;;;;5077049;28;20052;-74
2022/07/19 01:47:59;;;;;;;0.60;0.60;;;20.20;61.20;;;;;;5094897;28;20036;-74
2022/07/19 01:50:25;;;;;;;0.82;0.70;;;20.20;61.30;;;;;;5075253;28;20067;-73
2022/07/19 01:52:51;;;;;;;0.65;0.65;;;20.10;61.30;;;;;;5095501;28;20039;-74
2022/07/19 01:55:19;;;;;;;0.70;0.70;;;20.10;61.40;;;;;;5076718;28;20043;-75
2022/07/19 01:57:45;;;;;;;0.55;0.55;;;20.10;61.50;;;;;;5095003;28;20070;-74
2022/07/19 02:00:12;;;;;;;0.73;0.65;;;20.00;61.50;;;;;;5094764;28;20044;-74
2022/07/19 02:02:38;;;;;;;0.60;0.60;;;19.90;61.60;;;;;;5094595;28;20401;-74
2022/07/19 02:05:05;;;;;;;0.82;0.70;;;19.90;61.70;;;;;;5058061;28;20048;-74
2022/07/19 02:07:31;;;;;;;0.55;0.55;;;19.90;61.90;;;;;;5074315;28;20097;-74
2022/07/19 02:09:57;;;;;;;0.55;0.55;;;19.90;61.90;;;;;;5092490;28;20035;-74
2022/07/19 02:12:24;;;;;;;0.73;0.70;;;19.90;62.00;;;;;;5094612;28;20370;-73
2022/07/19 02:14:49;;;;;;;0.80;0.70;;;19.80;62.00;;;;;;5095006;28;20479;-74
2022/07/19 02:17:15;;;;;;;0.40;0.40;;;19.80;62.10;;;;;;5076136;28;20079;-74
2022/07/19 02:19:41;;;;;;;0.60;0.60;;;19.80;62.20;;;;;;5074294;28;20044;-74
2022/07/19 02:22:06;;;;;;;0.40;0.40;;;19.80;62.30;;;;;;5094337;28;20044;-74
2022/07/19 02:24:33;;;;;;;0.77;0.68;;;19.80;62.40;;;;;;5059265;28;20051;-74
2022/07/19 02:26:59;;;;;;;0.63;0.50;;;19.80;62.50;;;;;;5076277;28;20094;-74
2022/07/19 02:29:25;;;;;;;0.57;0.57;;;19.70;62.40;;;;;;5094152;28;20038;-74
2022/07/19 02:31:51;;;;;;;0.65;0.60;;;19.70;62.60;;;;;;5076027;28;20060;-74
2022/07/19 02:34:16;;;;;;;0.60;0.60;;;19.60;62.60;;;;;;5073982;28;20036;-74
2022/07/19 02:36:42;;;;;;;0.80;0.80;;;19.60;62.70;;;;;;5073956;28;20070;-74
2022/07/19 02:39:08;;;;;;;0.73;0.73;;;19.60;62.80;;;;;;5076024;28;20101;-74
2022/07/19 02:41:33;;;;;;;0.60;0.60;;;19.60;62.80;;;;;;5075921;28;20044;-74
2022/07/19 02:43:59;;;;;;;0.60;0.60;;;19.60;62.90;;;;;;5076730;28;20036;-74
2022/07/19 02:46:25;;;;;;;0.60;0.60;;;19.50;63.00;;;;;;5094644;28;20036;-74
2022/07/19 02:48:50;;;;;;;0.70;0.70;;;19.50;63.10;;;;;;5093939;28;20048;-74
2022/07/19 02:51:16;;;;;;;1.17;0.80;;;19.50;63.10;;;;;;5093997;28;20135;-74
2022/07/19 02:53:42;;;;;;;0.50;0.50;;;19.60;63.10;;;;;;5094153;28;20040;-74
2022/07/19 02:56:07;;;;;;;0.40;0.40;;;19.50;63.10;;;;;;5075511;28;20055;-74
2022/07/19 02:58:33;;;;;;;0.88;0.65;;;19.50;63.10;;;;;;5093768;28;20132;-74
2022/07/19 03:00:59;;;;;;;0.95;0.80;;;19.50;63.20;;;;;;5090037;28;20044;-74
2022/07/19 03:06:03;;;;;;;0.70;0.68;;;19.40;63.40;;;;;;5093648;28;20055;-74
2022/07/19 03:08:29;;;;;;;0.90;0.70;;;19.40;63.40;;;;;;5092537;28;20040;-74
2022/07/19 03:10:54;;;;;;;0.47;0.47;;;19.30;63.50;;;;;;5093153;28;20458;-74
2022/07/19 03:13:20;;;;;;;0.40;0.40;;;19.40;63.60;;;;;;5093641;28;20123;-74
2022/07/19 03:15:46;;;;;;;0.60;0.60;;;19.40;63.60;;;;;;5093927;28;20033;-74
2022/07/19 03:18:11;;;;;;;0.82;0.80;;;19.40;63.70;;;;;;5093820;28;20463;-74
2022/07/19 03:20:37;;;;;;;0.73;0.70;;;19.40;63.70;;;;;;5092735;28;20040;-74
2022/07/19 03:23:03;;;;;;;0.60;0.60;;;19.40;63.70;;;;;;5094052;28;20044;-74
2022/07/19 03:25:28;;;;;;;0.80;0.70;;;19.40;63.70;;;;;;5073233;28;20068;-74
2022/07/19 03:27:54;;;;;;;0.75;0.65;;;19.30;63.80;;;;;;5093819;28;20038;-74
2022/07/19 03:30:20;;;;;;;0.73;0.60;;;19.30;63.80;;;;;;5058838;28;20036;-74
2022/07/19 03:32:46;;;;;;;0.70;0.70;;;19.40;64.00;;;;;;5057066;28;20371;-74
2022/07/19 03:35:12;;;;;;;0.40;0.40;;;19.30;64.00;;;;;;5093645;28;20044;-74
2022/07/19 03:37:37;;;;;;;0.60;0.60;;;19.20;64.00;;;;;;5075181;28;20044;-74
2022/07/19 03:40:04;;;;;;;0.60;0.60;;;19.30;64.10;;;;;;5093099;28;20040;-74
2022/07/19 03:42:30;;;;;;;0.80;0.80;;;19.30;64.10;;;;;;5093127;28;20501;-74
2022/07/19 03:44:56;;;;;;;0.63;0.63;;;19.30;64.10;;;;;;5075531;28;20048;-74
2022/07/19 03:47:22;;;;;;;0.95;0.73;;;19.30;64.10;;;;;;5093393;28;20032;-74
2022/07/19 03:49:47;;;;;;;1.08;0.70;;;19.30;64.10;;;;;;5072883;28;20040;-74
2022/07/19 03:52:13;;;;;;;0.65;0.65;;;19.20;64.10;;;;;;5074903;28;20036;-74
2022/07/19 03:54:39;;;;;;;0.52;0.52;;;19.20;64.10;;;;;;5092911;28;20036;-74
2022/07/19 03:57:05;;;;;;;0.70;0.70;;;19.20;64.20;;;;;;5093275;28;20071;-74
2022/07/19 03:59:31;;;;;;;0.85;0.60;;;19.20;64.30;;;;;;5093209;28;20047;-74
2022/07/19 04:01:56;;;;;;;0.63;0.63;;;19.20;64.30;;;;;;5091216;28;20046;-75
2022/07/19 04:04:22;;;;;;;0.60;0.60;;;19.20;64.40;;;;;;5092908;28;20044;-74
2022/07/19 04:06:48;;;;;;;0.50;0.40;;;19.20;64.40;;;;;;5072827;28;20086;-74
2022/07/19 04:09:13;;;;;;;0.50;0.50;;;19.20;64.40;;;;;;5092783;28;20036;-74
2022/07/19 04:11:39;;;;;;;0.60;0.60;;;19.20;64.40;;;;;;5091020;28;20044;-74
2022/07/19 04:14:05;;;;;;;0.90;0.68;;;19.20;64.40;;;;;;5093237;28;20032;-74
2022/07/19 04:16:31;;;;;;;0.50;0.50;;;19.20;64.40;;;;;;5092739;28;20050;-74
2022/07/19 04:18:57;;;;;;;0.63;0.60;;;19.20;64.40;;;;;;5074784;28;20040;-74
2022/07/19 04:21:22;;;;;;;0.55;0.55;;;19.30;64.40;;;;;;5093085;28;20044;-74
2022/07/19 04:23:48;;;;;;;0.40;0.40;;;19.20;64.30;;;;;;5093050;28;20052;-74
2022/07/19 04:26:15;;;;;;;0.60;0.60;;;19.20;64.30;;;;;;5093035;28;20036;-74
2022/07/19 04:28:40;;;;;;;0.80;0.57;;;19.30;64.30;;;;;;5072549;28;20040;-74
2022/07/19 04:31:06;;;;;;;0.55;0.55;;;19.30;64.30;;;;;;5074511;28;20032;-74
2022/07/19 04:33:32;;;;;;;0.63;0.60;;;19.30;64.30;;;;;;5091796;28;20024;-74
2022/07/19 04:35:58;;;;;;;0.50;0.50;;;19.40;64.20;;;;;;5058032;28;20572;-74
2022/07/19 04:38:24;;;;;;;0.50;0.50;;;19.40;64.10;;;;;;5093252;28;20028;-74
2022/07/19 04:40:50;;;;;;;0.50;0.50;;;19.40;64.00;;;;;;5092609;28;20036;-74
2022/07/19 04:43:17;;;;;;;0.70;0.70;;;19.50;63.70;;;;;;5092959;28;20472;-74
2022/07/19 04:45:44;;;;;;;0.52;0.52;;;19.50;63.60;;;;;;5074606;28;20039;-74
2022/07/19 04:48:11;;;;;;;1.23;0.70;;;19.60;63.40;;;;;;5093011;28;20036;-75
2022/07/19 04:50:38;;;;;;;0.60;0.55;;;19.70;63.30;;;;;;5092446;28;20036;-75
2022/07/19 04:53:04;;;;;;;0.73;0.60;;;19.80;63.10;;;;;;5074923;28;20126;-74
2022/07/19 04:55:30;;;;;;;0.60;0.60;;;19.90;62.80;;;;;;5093089;28;20490;-74
2022/07/19 04:57:56;;;;;;;1.25;0.70;;;20.10;62.60;;;;;;5090644;28;20055;-74
2022/07/19 05:00:22;;;;;;;0.30;0.30;;;20.10;62.30;;;;;;5092998;28;20051;-75
2022/07/19 05:02:47;;;;;;;0.50;0.50;;;20.20;62.10;;;;;;5073881;28;20036;-74
2022/07/19 05:05:14;;;;;;;0.40;0.40;;;20.30;61.90;;;;;;5090470;28;20040;-75
2022/07/19 05:07:41;;;;;;;1.80;0.57;;;20.40;61.90;;;;;;5073938;28;20043;-75
2022/07/19 05:10:08;;;;;;;0.60;0.57;;;20.40;61.80;;;;;;5091996;28;20040;-75
2022/07/19 05:12:34;;;;;;;0.40;0.40;;;20.40;61.70;;;;;;5073908;28;20040;-75
2022/07/19 05:15:00;;;;;;;0.60;0.60;;;20.50;61.70;;;;;;5074283;28;20513;-74
2022/07/19 05:17:25;;;;;;;0.43;0.30;;;20.50;61.60;;;;;;5091976;28;20051;-75
2022/07/19 05:19:52;;;;;;;0.60;0.60;;;20.60;62.20;;;;;;5071561;28;20040;-75
2022/07/19 05:22:17;;;;;;;0.50;0.50;;;20.60;61.40;;;;;;5092378;28;20048;-75
2022/07/19 05:24:43;;;;;;;0.43;0.43;;;20.80;61.30;;;;;;5071850;28;20123;-75
2022/07/19 05:27:09;;;;;;;0.45;0.45;;;20.80;61.10;;;;;;5073900;28;20486;-74
2022/07/19 05:29:35;;;;;;;0.55;0.47;;;21.00;61.00;;;;;;5092487;28;20039;-74
2022/07/19 05:32:01;;;;;;;0.77;0.60;;;21.00;60.80;;;;;;5091678;28;20504;-75
2022/07/19 05:34:26;;;;;;;1.25;0.60;;;21.10;60.60;;;;;;5059069;28;20051;-76
2022/07/19 05:36:52;;;;;;;0.93;0.60;;;21.20;60.60;;;;;;5080744;28;20100;-75
2022/07/19 05:39:18;;;;;;;1.27;0.75;;;21.30;60.40;;;;;;5082717;28;20047;-75
2022/07/19 05:41:44;;;;;;;1.42;0.70;;;21.30;60.20;;;;;;5093555;28;20380;-75
2022/07/19 05:44:10;;;;;;;0.85;0.70;;;21.40;60.00;;;;;;5102331;28;20100;-75
2022/07/19 05:46:40;;;;;;;0.80;0.80;;;21.50;59.90;;;;;;5102948;28;20085;-75
2022/07/19 05:49:08;;;;;;;0.60;0.60;;;21.70;59.80;;;;;;5104847;28;20061;-75
2022/07/19 05:51:35;;;;;;;0.80;0.73;;;21.70;59.70;;;;;;5105544;28;20039;-75
2022/07/19 05:54:01;;;;;;;0.70;0.70;;;21.70;59.60;;;;;;5105427;28;20097;-75
2022/07/19 05:56:27;;;;;;;0.73;0.60;;;21.80;59.60;;;;;;5084960;28;20044;-76
2022/07/19 05:58:53;;;;;;;0.90;0.60;;;21.80;59.50;;;;;;5105524;28;20103;-75
2022/07/19 06:01:19;;;;;;;0.45;0.45;;;21.80;59.50;;;;;;5103770;28;20040;-75
2022/07/19 06:03:47;;;;;;;0.77;0.55;;;21.90;59.50;;;;;;5105706;28;20038;-75
2022/07/19 06:06:13;;;;;;;0.47;0.47;;;22.00;59.40;;;;;;5101492;28;20044;-75
2022/07/19 06:08:40;;;;;;;0.65;0.50;;;22.00;59.40;;;;;;5109491;28;20040;-75
2022/07/19 06:11:06;;;;;;;1.60;0.80;;;21.90;59.30;;;;;;5083433;28;20040;-75
2022/07/19 06:13:31;;;;;;;1.05;0.70;;;22.10;59.40;;;;;;5110268;28;20071;-76
2022/07/19 06:15:57;;;;;;;1.40;0.80;;;22.00;59.30;;;;;;5109642;28;20047;-75
2022/07/19 06:18:23;;;;;;;0.60;0.60;;;22.10;59.30;;;;;;5090812;28;20072;-75
2022/07/19 06:20:49;;;;;;;0.50;0.50;;;22.20;59.30;;;;;;5091190;28;20493;-74
2022/07/19 06:23:14;;;;;;;0.88;0.70;;;22.20;59.30;;;;;;5112916;28;20091;-75
2022/07/19 06:25:40;;;;;;;0.93;0.55;;;22.20;59.20;;;;;;5111501;28;20081;-75
2022/07/19 06:28:06;;;;;;;0.70;0.70;;;22.30;59.20;;;;;;5113146;28;20047;-75
2022/07/19 06:30:32;;;;;;;0.77;0.70;;;22.40;59.20;;;;;;5093772;28;20390;-75
2022/07/19 06:32:58;;;;;;;0.60;0.60;;;22.40;59.10;;;;;;5114200;28;20067;-75
2022/07/19 06:35:24;;;;;;;0.55;0.55;;;22.50;59.10;;;;;;5112194;28;20028;-75
2022/07/19 06:37:50;;;;;;;0.40;0.40;;;22.70;59.10;;;;;;5112355;28;20042;-74
2022/07/19 06:40:26;;;;;;;0.73;0.73;;;22.70;58.90;;;;;;5094062;28;20052;-74
2022/07/19 06:42:54;;;;;;;0.57;0.57;;;22.80;58.80;;;;;;5074573;28;20044;-74
2022/07/19 06:45:20;;;;;;;0.60;0.60;;;22.90;58.70;;;;;;5059329;28;20078;-74
2022/07/19 06:47:46;;;;;;;0.60;0.60;;;23.10;58.60;;;;;;5043867;28;20064;-74
2022/07/19 06:50:12;;;;;;;1.13;0.60;;;23.20;58.50;;;;;;5046016;28;20036;-73
2022/07/19 06:52:44;;;;;;;0.82;0.60;;;23.20;58.30;;;;;;5057132;28;20048;-73
2022/07/19 06:55:10;;;;;;;0.77;0.75;;;23.30;58.10;;;;;;5053663;28;20043;-73
2022/07/19 06:57:35;;;;;;;0.77;0.70;;;23.50;58.00;;;;;;5093938;28;20044;-73
2022/07/19 07:00:03;;;;;;;0.75;0.75;;;23.70;57.80;;;;;;5075727;28;20044;-74
2022/07/19 07:02:28;;;;;;;0.70;0.70;;;23.80;57.60;;;;;;5094395;28;20043;-73
2022/07/19 07:04:54;;;;;;;0.60;0.60;;;24.00;57.50;;;;;;5056999;28;20048;-73
2022/07/19 07:07:20;;;;;;;0.60;0.60;;;24.10;57.30;;;;;;5093659;28;20379;-74
2022/07/19 07:09:45;;;;;;;0.63;0.63;;;24.20;57.20;;;;;;5073753;28;20393;-75
2022/07/19 07:12:11;;;;;;;0.50;0.50;;;24.30;57.00;;;;;;5103137;28;20107;-75
2022/07/19 07:14:37;;;;;;;0.60;0.60;;;24.50;57.00;;;;;;5074228;28;20048;-75
2022/07/19 07:17:03;;;;;;;0.52;0.52;;;24.70;56.90;;;;;;5086712;28;20089;-75
2022/07/19 07:19:28;;;;;;;0.82;0.60;;;24.90;56.80;;;;;;5103759;28;20486;-74
2022/07/19 07:21:57;;;;;;;0.60;0.60;;;25.00;56.60;;;;;;5088165;28;20039;-75
2022/07/19 07:24:23;;;;;;;0.52;0.52;;;25.20;56.50;;;;;;5068361;28;20046;-76
2022/07/19 07:26:48;;;;;;;0.73;0.68;;;25.40;56.30;;;;;;5104756;28;20067;-76
2022/07/19 07:29:55;;;;;;;0.77;0.70;;;25.50;56.10;;;;;;5078248;28;20036;-77
2022/07/19 07:32:26;;;;;;;0.60;0.60;;;25.80;56.50;;;;;;5063962;28;20044;-75
2022/07/19 07:35:00;;;;;;;1.80;0.60;;;26.10;55.80;;;;;;5068446;28;20041;-74
2022/07/19 07:37:29;;;;;;;0.65;0.55;;;26.20;55.60;;;;;;5058285;28;20078;-75
2022/07/19 07:40:27;;;;;;;0.90;0.68;;;26.50;55.40;;;;;;5075170;28;20481;-76
2022/07/19 07:43:32;;;;;;;0.77;0.77;;;26.70;55.20;;;;;;5093870;28;20036;-74
2022/07/19 07:46:01;;;;;;;0.88;0.68;;;27.00;55.00;;;;;;5061125;28;20139;-72
2022/07/19 07:49:22;;;;;;;0.50;0.50;;;27.10;54.80;;;;;;5057563;28;20079;-75
2022/07/19 08:01:27;;;;;;;0.50;0.50;;;28.10;54.50;;;;;;4885399;29;20046;-74
2022/07/19 08:04:38;;;;;;;0.88;0.80;;;28.20;54.50;;;;;;4837543;29;20052;-75
2022/07/19 08:07:39;;;;;;;0.65;0.65;;;28.40;54.40;;;;;;4833340;29;20049;-75
2022/07/19 08:10:06;;;;;;;;;;;28.60;54.20;;;;;;4839745;29;20056;-73
2022/07/19 08:12:32;;;;;;;1.27;0.50;;;28.80;54.10;;;;;;4855301;29;19916;-73
2022/07/19 08:14:58;;;;;;;0.98;0.60;;;29.00;54.10;;;;;;4839759;29;20929;-73
2022/07/19 08:17:24;;;;;;;0.60;0.52;;;29.10;54.00;;;;;;4855199;29;20129;-73
2022/07/19 08:19:49;;;;;;;1.33;0.70;;;29.20;54.00;;;;;;4837934;29;20557;-74
2022/07/19 08:22:21;;;;;;;0.60;0.60;;;29.40;53.80;;;;;;4822814;29;20055;-74
2022/07/19 08:24:46;;;;;;;1.48;0.70;;;29.60;53.60;;;;;;4838644;29;20046;-75
2022/07/19 08:27:12;;;;;;;0.73;0.60;;;29.60;53.50;;;;;;4828491;29;20526;-74
2022/07/19 08:30:00;;;;;;;0.55;0.55;;;29.90;53.60;;;;;;4843376;29;20170;-76
2022/07/19 08:32:28;;;;;;;0.70;0.70;;;30.00;53.40;;;;;;4846761;29;20167;-75
2022/07/19 08:38:39;;;;;;;0.60;0.60;;;30.30;53.30;;;;;;4885073;29;20044;-75
2022/07/19 08:47:49;;;;;;;0.60;0.60;;;31.00;52.60;;;;;;4900242;29;20051;-76
2022/07/19 08:51:08;;;;;;;1.10;0.70;;;31.10;52.50;;;;;;4837182;29;20041;-76
2022/07/19 08:53:55;;;;;;;0.80;0.77;;;31.20;52.40;;;;;;4838793;29;20061;-75
2022/07/19 08:59:14;;;;;;;0.75;0.75;;;31.60;52.10;;;;;;4823182;29;20430;-74
2022/07/19 09:01:40;;;;;;;0.70;0.70;;;31.70;52.00;;;;;;4802959;29;20047;-75
2022/07/19 09:04:11;;;;;;;0.70;0.60;;;31.60;52.00;;;;;;4819187;29;20191;-74
2022/07/19 09:10:14;;;;;;;0.60;0.60;;;31.70;51.90;;;;;;4835218;29;20083;-75
2022/07/19 09:13:36;;;;;;;0.50;0.50;;;31.90;51.70;;;;;;4816300;29;20041;-76
2022/07/19 09:16:12;;;;;;;0.70;0.70;;;32.20;51.60;;;;;;4787063;29;20055;-75
2022/07/19 09:18:38;;;;;;;0.98;0.70;;;32.20;51.40;;;;;;4800283;29;20120;-74
2022/07/19 09:21:06;;;;;;;1.23;0.80;;;32.20;51.30;;;;;;4823897;29;20042;-74
2022/07/19 09:23:33;;;;;;;1.80;0.70;;;32.30;51.20;;;;;;4823966;29;20084;-74
2022/07/19 09:26:01;;;;;;;0.60;0.60;;;32.60;50.90;;;;;;4832492;29;20052;-74
2022/07/19 09:28:31;;;;;;;0.80;0.80;;;32.80;50.70;;;;;;4899215;29;20196;-74
2022/07/19 09:30:57;;;;;;;;;;;32.90;50.40;;;;;;4917459;29;20044;-74
2022/07/19 09:33:27;;;;;;;0.57;0.57;;;33.00;50.40;;;;;;4926070;28;19914;-74
2022/07/19 09:35:59;;;;;;;0.52;0.52;;;33.00;50.20;;;;;;4974150;28;20409;-74
2022/07/19 09:38:28;;;;;;;0.70;0.70;;;33.10;50.20;;;;;;4974700;28;20177;-75
2022/07/19 09:41:11;;;;;;;1.05;0.80;;;33.10;50.00;;;;;;5000424;28;20046;-74
2022/07/19 09:43:54;;;;;;;0.80;0.80;;;33.30;49.80;;;;;;4994754;28;20094;-74
2022/07/19 09:46:44;;;;;;;1.85;0.88;;;33.50;49.60;;;;;;5051959;28;20401;-74
2022/07/19 09:49:13;;;;;;;0.70;0.70;;;33.60;49.30;;;;;;5095582;28;20085;-74
2022/07/19 09:51:42;;;;;;;1.48;0.77;;;33.70;49.10;;;;;;5095084;28;20059;-74
2022/07/19 09:54:11;;;;;;;0.98;0.75;;;33.80;49.00;;;;;;5095702;28;20126;-74
2022/07/19 09:56:39;;;;;;;0.70;0.70;;;33.80;48.90;;;;;;5077259;28;20082;-74
2022/07/19 09:59:05;;;;;;;0.95;0.75;;;33.70;48.90;;;;;;5095119;28;20032;-74
2022/07/19 10:01:31;;;;;;;0.80;0.80;;;33.70;48.90;;;;;;5095047;28;20043;-74
2022/07/19 10:04:02;;;;;;;0.80;0.80;;;33.70;48.80;;;;;;5076738;28;20039;-74
2022/07/19 10:06:29;;;;;;;0.80;0.80;;;33.70;48.60;;;;;;5077074;28;20037;-74
2022/07/19 10:08:56;;;;;;;0.70;0.70;;;33.70;48.70;;;;;;5095209;28;20044;-74
2022/07/19 10:11:22;;;;;;;0.93;0.80;;;33.80;48.50;;;;;;5095117;28;20066;-75
2022/07/19 10:13:50;;;;;;;0.70;0.60;;;34.10;48.30;;;;;;5095155;28;20485;-74
2022/07/19 10:16:23;;;;;;;0.75;0.75;;;34.10;47.90;;;;;;5076882;28;20067;-74
2022/07/19 10:19:02;;;;;;;0.70;0.70;;;34.30;47.70;;;;;;5093147;28;20028;-74
2022/07/19 10:21:29;;;;;;;0.60;0.60;;;34.30;47.60;;;;;;5094747;28;20090;-75
2022/07/19 10:23:55;;;;;;;0.90;0.90;;;34.30;47.60;;;;;;5095024;28;20044;-74
2022/07/19 10:26:37;;;;;;;0.88;0.85;;;34.40;47.50;;;;;;5094416;28;20039;-75
2022/07/19 10:29:14;;;;;;;0.70;0.70;;;34.40;47.10;;;;;;5094698;28;20036;-74
2022/07/19 10:31:40;;;;;;;0.52;0.52;;;34.40;47.20;;;;;;5095389;28;20359;-75
2022/07/19 10:34:08;;;;;;;0.60;0.60;;;34.40;47.20;;;;;;5095016;28;20490;-75
2022/07/19 10:36:43;;;;;;;0.60;0.60;;;34.40;47.10;;;;;;5056028;28;20051;-75
2022/07/19 10:39:29;;;;;;;0.77;0.63;;;34.50;47.10;;;;;;5094790;28;20044;-75
2022/07/19 10:42:07;;;;;;;0.80;0.80;;;34.60;46.90;;;;;;5094804;28;20064;-76
2022/07/19 10:44:33;;;;;;;0.93;0.77;;;34.60;46.70;;;;;;5074711;28;20569;-75
2022/07/19 10:46:59;;;;;;;0.70;0.70;;;34.80;46.70;;;;;;5072146;28;20368;-75
2022/07/19 10:49:45;;;;;;;0.93;0.73;;;34.90;46.50;;;;;;5095502;28;20105;-76
2022/07/19 10:52:31;;;;;;;0.50;0.50;;;35.00;46.10;;;;;;5094082;28;20455;-76
2022/07/19 10:55:28;;;;;;;0.63;0.63;;;35.20;46.60;;;;;;5095651;28;20035;-76
2022/07/19 10:58:10;;;;;;;0.50;0.50;;;35.20;45.80;;;;;;5093696;28;20047;-75
2022/07/19 11:00:48;;;;;;;0.70;0.70;;;35.40;45.70;;;;;;5078886;28;20126;-75
2022/07/19 11:04:19;;;;;;;0.80;0.73;;;35.50;45.60;;;;;;5073370;28;20497;-76
2022/07/19 11:06:45;;;;;;;0.80;0.80;;;35.50;45.20;;;;;;4987772;28;20050;-74
2022/07/19 11:09:10;;;;;;;0.80;0.70;;;35.50;45.10;;;;;;4992312;28;20563;-74
2022/07/19 11:11:36;;;;;;;0.73;0.73;;;35.50;45.10;;;;;;4992006;28;20074;-74
2022/07/19 11:14:04;;;;;;;0.88;0.80;;;35.60;45.10;;;;;;4994145;28;20396;-75
2022/07/19 11:16:30;;;;;;;0.70;0.70;;;35.70;44.80;;;;;;4995364;28;20042;-75
2022/07/19 11:19:13;;;;;;;0.63;0.63;;;35.70;44.60;;;;;;5009385;28;20046;-74
2022/07/19 11:21:44;;;;;;;1.15;0.70;;;35.70;44.50;;;;;;4980166;28;20068;-74
2022/07/19 11:28:03;;;;;;;0.50;0.50;;;35.80;44.40;;;;;;4977410;28;20512;-75
2022/07/19 11:31:13;;;;;;;0.70;0.70;;;35.90;44.30;;;;;;4878785;29;20083;-74
2022/07/19 11:54:23;;;;;;;0.90;0.60;;;36.30;43.60;;;;;;4765440;30;20451;-74
2022/07/19 11:56:49;;;;;;;0.70;0.52;;;36.30;43.40;;;;;;4748896;30;20051;-74
2022/07/19 11:59:16;;;;;;;0.50;0.50;;;36.30;43.30;;;;;;4752605;30;20403;-74
2022/07/19 12:01:44;;;;;;;0.60;0.60;;;36.30;43.20;;;;;;4738299;30;20052;-75
2022/07/19 12:04:12;;;;;;;0.80;0.80;;;36.30;43.20;;;;;;4754881;30;20051;-73
2022/07/19 12:10:57;;;;;;;0.65;0.65;;;36.30;42.70;;;;;;4779978;29;20102;-75
2022/07/19 12:13:58;;;;;;;0.63;0.63;;;36.40;42.90;;;;;;4825771;29;20046;-76
2022/07/19 12:16:29;;;;;;;0.63;0.63;;;36.40;42.70;;;;;;4857583;29;20556;-75
2022/07/19 12:19:43;;;;;;;0.80;0.80;;;36.40;42.50;;;;;;4850488;29;20162;-75
2022/07/19 12:26:25;;;;;;;0.90;0.90;;;36.30;42.40;;;;;;4836884;29;20465;-75
2022/07/19 12:33:16;;;;;;;0.70;0.70;;;36.40;42.30;;;;;;4825102;29;20068;-75
2022/07/19 12:40:55;;;;;;;0.60;0.60;;;36.20;42.30;;;;;;4820509;29;20050;-76
2022/07/19 13:05:25;;;;;;;0.52;0.52;;;36.00;42.20;;;;;;4878182;29;20056;-75
2022/07/19 13:07:51;;;;;;;0.50;0.50;;;36.00;42.20;;;;;;4825813;29;20092;-75
2022/07/19 13:13:15;;;;;;;0.80;0.75;;;36.00;42.10;;;;;;4822668;29;20392;-74
2022/07/19 13:19:11;;;;;;;0.70;0.70;;;36.00;41.80;;;;;;4768870;30;20059;-74
2022/07/19 13:21:49;;;;;;;1.02;0.75;;;35.90;41.70;;;;;;4755248;30;20135;-75
2022/07/19 13:24:14;;;;;;;0.60;0.60;;;35.90;41.70;;;;;;4756517;30;20472;-75
2022/07/19 13:26:40;;;;;;;0.70;0.70;;;35.80;41.70;;;;;;4755229;30;20111;-75
2022/07/19 13:29:09;;;;;;;0.50;0.50;;;35.90;41.60;;;;;;4754966;30;20419;-75
2022/07/19 13:32:14;;;;;;;0.60;0.60;;;35.90;41.50;;;;;;4755617;30;20155;-75
2022/07/19 13:34:52;;;;;;;0.70;0.70;;;35.90;41.40;;;;;;4783935;29;20051;-73
2022/07/19 13:37:23;;;;;;;1.20;1.00;;;35.90;41.20;;;;;;4789115;29;20055;-75
2022/07/19 13:39:52;;;;;;;1.30;0.77;;;35.90;40.90;;;;;;4804273;29;20069;-74
2022/07/19 13:49:16;;;;;;;;;;;35.90;40.70;;;;;;4774462;30;20063;-75
2022/07/19 13:51:41;;;;;;;0.82;0.70;;;35.90;40.90;;;;;;4751885;30;20009;-74
2022/07/19 13:54:10;;;;;;;0.50;0.50;;;35.80;40.80;;;;;;4758896;30;20135;-75
2022/07/19 13:56:50;;;;;;;1.20;0.60;;;35.80;40.80;;;;;;4833553;29;20053;-75
2022/07/19 13:59:47;;;;;;;0.47;0.47;;;35.80;40.70;;;;;;4823921;29;20039;-76
2022/07/19 14:02:16;;;;;;;0.60;0.60;;;35.80;40.60;;;;;;4862460;29;20068;-76
2022/07/19 14:08:06;;;;;;;0.40;0.40;;;35.80;40.40;;;;;;4922294;29;20042;-75
2022/07/19 14:10:32;;;;;;;1.30;0.57;;;35.70;40.30;;;;;;4901799;29;20040;-74
2022/07/19 14:12:58;;;;;;;0.60;0.60;;;35.70;40.20;;;;;;4900538;29;20075;-75
2022/07/19 14:15:43;;;;;;;0.65;0.65;;;35.70;40.10;;;;;;4916020;29;20092;-75
2022/07/19 14:18:10;;;;;;;0.60;0.60;;;35.70;39.90;;;;;;4919007;29;20050;-74
2022/07/19 14:20:36;;;;;;;0.55;0.55;;;35.80;39.80;;;;;;4938048;28;20077;-74
2022/07/19 14:23:02;;;;;;;0.60;0.60;;;35.70;39.70;;;;;;5029986;28;20052;-75
2022/07/19 14:25:30;;;;;;;0.52;0.52;;;35.60;39.60;;;;;;5058920;28;20044;-74
2022/07/19 14:27:56;;;;;;;0.68;0.55;;;35.70;39.60;;;;;;5094765;28;20071;-75
2022/07/19 14:30:32;;;;;;;0.70;0.60;;;35.60;39.50;;;;;;5061014;28;20154;-75
2022/07/19 14:32:58;;;;;;;1.23;0.63;;;35.70;39.60;;;;;;5076442;28;20100;-75
2022/07/19 14:35:45;;;;;;;0.60;0.60;;;35.70;39.50;;;;;;5033051;28;20052;-75
2022/07/19 14:38:11;;;;;;;0.40;0.40;;;35.60;39.40;;;;;;5021274;28;20068;-74
2022/07/19 14:40:39;;;;;;;0.57;0.57;;;35.70;39.30;;;;;;5005348;28;20058;-74
2022/07/19 14:43:10;;;;;;;0.60;0.60;;;35.70;39.30;;;;;;5034183;28;20479;-75
2022/07/19 14:45:35;;;;;;;0.70;0.70;;;35.70;39.20;;;;;;5052688;28;20087;-74
2022/07/19 14:48:01;;;;;;;0.70;0.65;;;35.70;39.10;;;;;;5033329;28;20519;-74
2022/07/19 14:50:27;;;;;;;0.70;0.63;;;35.70;39.10;;;;;;5052511;28;20179;-74